Ras Al Khaimah, UAE

12:40 PM GST on February 10, 2016 (GMT +0400)
Ras Al Khaimah International | | Change Station
CLOSE
Current Station
Airport
Location: Ras Al Khaimah,
Elevation: 102 ft
Nearby Weather Stations

Elev 102 ft 25.61 °N, 55.94 °E | Updated 40 minutes ago

Clear
Clear
72 °F
Feels Like 72 °F
N
7
Wind Variable Wind from WSW

Today
High -- | Low -- °F
--% Chance of Precip.
Yesterday
High -- | Low -- °F
Precip. -- in
Pressure 30.09 in
Visibility -9999.0 miles
Clouds
Dew Point 48 °F
Humidity 43%
Rainfall 0.00 in
Snow Depth Not available.
6:55 AM 6:06 PM
Waxing Crescent, 4% visible
METAR OMRK 100800Z 24006KT CAVOK 22/09 Q1019 A3010
Pressure 30.09 in
Visibility -9999.0 miles
Clouds
Dew Point 48 °F
Humidity 43%
Rainfall 0.00 in
Snow Depth Not available.
6:55 AM 6:06 PM
Waxing Crescent, 4% visible
METAR OMRK 100800Z 24006KT CAVOK 22/09 Q1019 A3010

10-Day Weather Forecast

No radar image for this location.
×

Almanac

Astronomy

Feb. 10, 2016 Rise Set
Actual Time
Civil Twilight
Nautical Twilight
Astronomical Twilight
Moon
Length of Visible Light
Length of Day
Tomorrow will be .
, % of the Moon is Illuminated

Today's Extremes

Country Highs Country Lows

Community

WunderPhotos

Upload Photos

1,891,826 photos uploaded!

WunderBlog® & News

Nearby

Air Quality

  Air Quality AQ Index Pollutant
Not available.

Snow Depth

Station Depth Elevation

Earthquake Activity

City Distance Mag. Time & Date
Minimum magnitude displayed is 2.5.

Coastal Water Temperatures

Place Temperature

Stations

Nearby Weather Stations

Station Location Temp. Windchill Dew Point Humidity Wind Precip. Elev Updated Type